ICT,Max TemperatureF,Mean TemperatureF,Min TemperatureF,Max Dew PointF,MeanDew PointF,Min DewpointF,Max Humidity, Mean Humidity, Min Humidity, Max Sea Level PressureIn, Mean Sea Level PressureIn, Min Sea Level PressureIn, Max VisibilityMiles, Mean VisibilityMiles, Min VisibilityMiles, Max Wind SpeedMPH, Mean Wind SpeedMPH, Max Gust SpeedMPH,PrecipitationIn, CloudCover, Events, WindDirDegrees
2013-11-1,90,80,71,78,74,72,94,78,55,29.92,29.84,29.75,7,5,3,10,3,,0.12,5,Rain-Thunderstorm,66
2013-11-2,90,82,75,77,74,68,94,77,46,29.89,29.83,29.77,6,6,4,13,3,22,0.20,4,Rain-Thunderstorm,85
2013-11-3,90,81,72,76,73,70,96,80,52,29.89,29.84,29.74,6,5,2,14,2,,0.20,4,Rain-Thunderstorm,113
2013-11-4,93,82,70,75,73,70,95,76,51,29.92,29.86,29.80,6,6,2,13,4,,0.28,4,Rain-Thunderstorm,80
2013-11-5,92,81,70,76,73,70,94,73,46,29.89,29.85,29.77,6,5,4,12,3,,0.00,6,,358
2013-11-6,90,80,71,74,72,70,89,69,50,29.89,29.83,29.77,6,5,4,10,4,,0.00,6,,74
2013-11-7,89,81,73,76,74,72,94,78,53,29.89,29.81,29.74,6,5,4,9,3,,0.00,6,,354
2013-11-8,88,80,73,77,75,73,94,81,57,29.83,29.78,29.71,6,6,4,12,3,,0.00,6,,246
2013-11-9,87,81,75,77,74,73,94,84,66,29.83,29.78,29.71,6,5,2,6,1,18,0.31,6,Rain,121
2013-11-10,89,81,73,77,75,72,94,80,60,29.83,29.77,29.71,6,5,4,6,2,,0.01,6,,261
2013-11-11,94,84,73,78,75,72,94,81,58,29.80,29.76,29.68,6,6,4,12,3,,0.04,6,Rain,188
2013-11-12,89,80,72,78,75,73,96,80,62,29.83,29.76,29.68,6,5,2,14,7,,1.38,6,Rain-Thunderstorm,91
2013-11-13,88,80,71,78,75,73,96,82,59,29.86,29.77,29.70,6,5,1,12,3,,1.38,6,Rain-Thunderstorm,77
2013-11-14,90,80,71,78,74,72,97,79,52,29.89,29.78,29.68,6,5,2,12,3,,1.14,6,Rain-Thunderstorm,115
2013-11-15,89,80,70,77,74,72,94,80,60,29.86,29.80,29.71,6,6,5,12,4,,0.08,5,Rain-Thunderstorm,327
2013-11-16,90,82,74,77,74,72,99,79,55,29.86,29.79,29.73,6,6,4,9,2,,0.20,6,Rain,28
2013-11-17,84,78,72,77,74,70,94,81,70,29.89,29.82,29.76,6,6,5,14,5,,0.02,6,,80
2013-11-18,89,80,72,76,74,72,95,75,55,29.92,29.83,29.76,6,6,6,14,4,,0.00,6,,63
2013-11-19,89,80,71,77,73,72,94,71,51,29.89,29.83,29.73,6,6,6,15,4,,0.00,5,,63
2013-11-20,84,78,71,77,73,70,94,83,73,29.89,29.82,29.73,6,5,1,12,2,,0.43,6,Rain,77
2013-11-21,84,78,72,76,73,70,94,87,78,29.83,29.78,29.69,6,5,4,8,1,,0.16,6,Rain,61
2013-11-22,79,76,73,76,73,72,99,88,78,29.83,29.76,29.69,5,4,1,10,3,,0.35,6,Rain,42
2013-11-23,80,76,72,76,73,72,91,85,74,29.83,29.72,29.65,6,4,1,26,7,38,2.01,6,Rain,90
2013-11-24,92,82,71,76,74,72,95,82,60,29.86,29.80,29.71,6,5,3,12,6,,0.08,6,Rain,93
2013-11-25,88,80,71,76,73,72,95,79,57,29.86,29.79,29.69,6,6,6,13,3,,0.00,5,,111
2013-11-26,90,81,72,77,74,68,96,79,49,29.86,29.78,29.71,6,6,3,12,3,,0.20,3,Rain,82
2013-11-27,89,80,70,77,74,72,99,81,57,29.92,29.84,29.74,6,5,1,12,4,25,1.10,6,Rain-Thunderstorm,47
2013-11-28,90,82,74,78,74,72,100,85,70,29.95,29.86,29.80,6,5,3,13,2,,0.02,6,Rain,67
2013-11-29,86,79,72,76,74,72,95,81,65,29.89,29.84,29.77,6,5,3,12,5,,0.12,6,Rain,66
2013-11-30,87,80,72,76,73,72,94,78,59,29.89,29.82,29.74,6,6,2,13,5,,0.39,6,Rain,68